Time;durP1;ratioP1;P1;durP2;ratioP2;P2;SDS_P1;SDS_P2;PMS_P1;PMS_P2;Temp;Humidity;BMP_temperature;BMP_pressure;BME280_temperature;BME280_humidity;BME280_pressure;Samples;Min_cycle;Max_cycle;Signal;HPM_P1;HPM_P2
2022/12/20 00:01:51;;;;;;;52.53;26.00;;;-0.90;99.90;;;;;;5008349;28;20041;-56
2022/12/20 00:04:16;;;;;;;45.33;23.77;;;-0.90;99.90;;;;;;5008377;28;20124;-57
2022/12/20 00:06:42;;;;;;;50.85;22.67;;;-0.80;99.90;;;;;;5008109;28;20081;-58
2022/12/20 00:09:08;;;;;;;50.33;23.80;;;-0.80;99.90;;;;;;5007848;28;20026;-56
2022/12/20 00:11:37;;;;;;;52.25;24.33;;;-0.70;99.90;;;;;;5007773;28;20040;-58
2022/12/20 00:14:02;;;;;;;48.63;24.38;;;-0.70;99.90;;;;;;5006004;28;20426;-57
2022/12/20 00:16:28;;;;;;;53.10;23.45;;;-0.70;99.90;;;;;;5007658;28;20026;-57
2022/12/20 00:18:57;;;;;;;50.58;24.85;;;-0.60;99.90;;;;;;5008264;28;20056;-56
2022/12/20 00:21:23;;;;;;;51.88;25.15;;;-0.60;99.90;;;;;;5008439;28;20449;-57
2022/12/20 00:23:49;;;;;;;48.22;22.92;;;-0.60;99.90;;;;;;5007367;28;20038;-56
2022/12/20 00:26:18;;;;;;;48.67;24.92;;;-0.60;99.90;;;;;;5007304;28;20026;-57
2022/12/20 00:28:45;;;;;;;44.08;22.48;;;-0.50;99.90;;;;;;5006261;28;20542;-57
2022/12/20 00:31:13;;;;;;;47.55;23.20;;;-0.50;99.90;;;;;;5007894;28;20033;-57
2022/12/20 00:33:39;;;;;;;50.28;23.50;;;-0.50;99.90;;;;;;5007848;28;20054;-57
2022/12/20 00:36:06;;;;;;;47.50;21.67;;;-0.60;99.90;;;;;;5007506;28;20068;-56
2022/12/20 00:38:33;;;;;;;51.65;23.30;;;-0.60;99.90;;;;;;5006408;28;20073;-59
2022/12/20 00:41:10;;;;;;;54.55;23.55;;;-0.60;99.90;;;;;;5006192;28;20041;-57
2022/12/20 00:43:37;;;;;;;49.50;22.33;;;-0.60;99.90;;;;;;5007619;28;20045;-57
2022/12/20 00:46:03;;;;;;;50.45;24.85;;;-0.60;99.90;;;;;;5007503;28;20112;-57
2022/12/20 00:48:30;;;;;;;50.90;23.95;;;-0.60;99.90;;;;;;5008536;28;20052;-57
2022/12/20 00:51:12;;;;;;;47.25;24.52;;;-0.60;99.90;;;;;;5007449;28;20044;-58
2022/12/20 00:53:39;;;;;;;48.45;23.98;;;-0.50;99.90;;;;;;5006808;28;20030;-58
2022/12/20 00:56:06;;;;;;;47.55;24.02;;;-0.40;99.90;;;;;;5007481;28;20060;-57
2022/12/20 00:58:34;;;;;;;43.30;22.23;;;-0.40;99.90;;;;;;5007038;28;20100;-57
2022/12/20 01:01:00;;;;;;;52.38;24.52;;;-0.30;99.90;;;;;;5007426;28;20156;-59
2022/12/20 01:03:25;;;;;;;51.78;26.75;;;-0.30;99.90;;;;;;5007815;28;20097;-58
2022/12/20 01:05:56;;;;;;;50.35;23.83;;;-0.30;99.90;;;;;;5007367;28;20578;-59
2022/12/20 01:08:22;;;;;;;47.85;22.85;;;-0.20;99.90;;;;;;5006581;28;20038;-58
2022/12/20 01:11:01;;;;;;;49.45;23.30;;;-0.20;99.90;;;;;;5006476;28;20034;-57
2022/12/20 01:13:27;;;;;;;49.80;23.05;;;-0.10;99.90;;;;;;5006916;28;20169;-58
2022/12/20 01:15:53;;;;;;;45.28;22.88;;;-0.10;99.90;;;;;;5007359;28;20111;-57
2022/12/20 01:18:19;;;;;;;45.95;22.00;;;0.00;99.90;;;;;;5007518;28;20746;-58
2022/12/20 01:20:44;;;;;;;47.85;22.67;;;0.00;99.90;;;;;;5008463;28;20113;-58
2022/12/20 01:23:10;;;;;;;46.88;22.48;;;0.00;99.90;;;;;;5011104;28;20079;-57
2022/12/20 01:25:35;;;;;;;40.13;21.60;;;0.10;99.90;;;;;;5010819;28;20037;-58
2022/12/20 01:28:01;;;;;;;48.47;23.77;;;0.10;99.90;;;;;;5010289;28;20915;-56
2022/12/20 01:30:27;;;;;;;43.00;21.30;;;0.10;99.90;;;;;;5011583;28;20049;-58
2022/12/20 01:32:52;;;;;;;49.25;24.33;;;0.20;99.90;;;;;;5010607;28;20449;-57
2022/12/20 01:35:18;;;;;;;44.90;21.98;;;0.20;99.90;;;;;;5011620;28;20431;-58
2022/12/20 01:37:43;;;;;;;38.70;20.48;;;0.20;99.90;;;;;;5010327;28;20045;-57
2022/12/20 01:40:09;;;;;;;41.50;21.88;;;0.20;99.90;;;;;;5010390;28;20026;-57
2022/12/20 01:42:36;;;;;;;44.28;21.92;;;0.20;99.90;;;;;;5011486;28;20022;-57
2022/12/20 01:45:04;;;;;;;38.03;21.42;;;0.20;99.90;;;;;;5011154;28;20037;-57
2022/12/20 01:47:33;;;;;;;42.78;21.58;;;0.20;99.90;;;;;;5011173;28;20733;-58
2022/12/20 01:50:00;;;;;;;45.72;22.85;;;0.20;99.90;;;;;;5009892;28;20057;-58
2022/12/20 01:52:31;;;;;;;46.00;22.23;;;0.20;99.90;;;;;;5010568;28;20029;-58
2022/12/20 01:55:09;;;;;;;38.53;20.85;;;0.20;99.90;;;;;;5009899;28;20029;-59
2022/12/20 01:57:44;;;;;;;43.42;21.17;;;0.20;99.90;;;;;;5009581;28;20072;-59
2022/12/20 02:00:11;;;;;;;48.08;22.73;;;0.30;99.90;;;;;;5010298;28;20030;-56
2022/12/20 02:02:37;;;;;;;43.20;21.85;;;0.30;99.90;;;;;;5010186;28;20054;-58
2022/12/20 02:05:03;;;;;;;43.10;21.70;;;0.30;99.90;;;;;;5010899;28;20529;-56
2022/12/20 02:07:31;;;;;;;42.38;22.45;;;0.30;99.90;;;;;;5010964;28;20593;-57
2022/12/20 02:09:59;;;;;;;38.70;21.35;;;0.30;99.90;;;;;;5016437;28;20030;-57
2022/12/20 02:12:30;;;;;;;40.30;21.88;;;0.30;99.90;;;;;;5011293;28;20030;-57
2022/12/20 02:15:04;;;;;;;;;;;0.40;99.90;;;;;;5010230;28;20037;-57
2022/12/20 02:17:46;;;;;;;43.15;22.13;;;0.40;99.90;;;;;;5010155;28;19960;-57
2022/12/20 02:20:37;;;;;;;44.40;23.88;;;0.40;99.90;;;;;;5009354;28;20026;-58
2022/12/20 02:23:08;;;;;;;47.78;23.50;;;0.50;99.90;;;;;;5010588;28;20026;-57
2022/12/20 02:25:52;;;;;;;47.63;23.83;;;0.50;99.90;;;;;;5009117;28;20060;-57
2022/12/20 02:28:49;;;;;;;45.35;21.83;;;0.50;99.90;;;;;;5010309;28;20037;-56
2022/12/20 02:31:22;;;;;;;47.15;23.02;;;0.50;99.90;;;;;;5008602;28;20035;-58
2022/12/20 02:33:50;;;;;;;50.60;24.33;;;0.50;99.90;;;;;;5010001;28;20025;-56
2022/12/20 02:36:17;;;;;;;55.38;24.40;;;0.50;99.90;;;;;;5009604;28;20088;-59
2022/12/20 02:38:43;;;;;;;51.92;24.67;;;0.50;99.90;;;;;;5010620;28;20042;-59
2022/12/20 02:41:25;;;;;;;46.75;25.13;;;0.60;99.90;;;;;;5008407;28;20042;-58
2022/12/20 02:46:49;;;;;;;57.25;26.70;;;0.50;99.90;;;;;;5009753;28;20049;-58
2022/12/20 02:49:18;;;;;;;52.70;25.52;;;0.60;99.90;;;;;;5009216;28;20553;-59
2022/12/20 02:51:48;;;;;;;45.67;24.75;;;0.60;99.90;;;;;;5009128;28;20121;-58
2022/12/20 02:54:15;;;;;;;51.22;25.35;;;0.60;99.90;;;;;;5008863;28;20510;-57
2022/12/20 02:56:46;;;;;;;53.25;25.25;;;0.60;99.90;;;;;;5009486;28;20095;-57
2022/12/20 02:59:20;;;;;;;49.45;24.92;;;0.60;99.90;;;;;;5009376;28;20557;-58
2022/12/20 03:01:53;;;;;;;49.22;25.40;;;0.60;99.90;;;;;;5008979;28;20105;-57
2022/12/20 03:04:23;;;;;;;58.85;26.60;;;0.60;99.90;;;;;;5009483;28;20053;-57
2022/12/20 03:07:00;;;;;;;53.05;24.92;;;0.60;99.90;;;;;;5009741;28;20026;-57
2022/12/20 03:09:28;;;;;;;53.15;26.13;;;0.60;99.90;;;;;;5009491;28;20060;-58
2022/12/20 03:11:55;;;;;;;55.80;24.70;;;0.60;99.90;;;;;;5007761;28;20103;-57
2022/12/20 03:14:20;;;;;;;49.28;25.38;;;0.60;99.90;;;;;;5009407;28;20034;-57
2022/12/20 03:16:46;;;;;;;49.45;26.27;;;0.60;99.90;;;;;;5009060;28;20029;-57
2022/12/20 03:19:12;;;;;;;53.88;27.02;;;0.60;99.90;;;;;;5008847;28;20109;-57
2022/12/20 03:21:37;;;;;;;54.88;27.05;;;0.60;99.90;;;;;;5009639;28;20040;-57
2022/12/20 03:24:03;;;;;;;55.33;26.48;;;0.60;99.90;;;;;;5008951;28;20034;-58
2022/12/20 03:26:29;;;;;;;56.08;27.52;;;0.60;99.90;;;;;;5010437;28;20030;-58
2022/12/20 03:28:55;;;;;;;54.00;26.05;;;0.60;99.90;;;;;;5009522;28;20061;-60
2022/12/20 03:31:20;;;;;;;57.35;28.48;;;0.60;99.90;;;;;;5009364;28;20084;-58
2022/12/20 03:33:46;;;;;;;54.92;27.40;;;0.60;99.90;;;;;;5009473;28;20505;-58
2022/12/20 03:36:12;;;;;;;57.33;26.63;;;0.60;99.90;;;;;;5007916;28;20038;-57
2022/12/20 03:38:37;;;;;;;57.13;27.45;;;0.50;99.90;;;;;;5008594;28;20038;-57
2022/12/20 03:41:03;;;;;;;62.53;27.30;;;0.50;99.90;;;;;;5008093;28;20037;-56
2022/12/20 03:43:28;;;;;;;57.08;27.98;;;0.50;99.90;;;;;;5008408;28;20053;-57
2022/12/20 03:45:54;;;;;;;57.88;26.40;;;0.50;99.90;;;;;;5008822;28;20026;-60
2022/12/20 03:48:20;;;;;;;57.35;27.23;;;0.50;99.90;;;;;;5008645;28;20117;-58
2022/12/20 03:50:45;;;;;;;55.42;27.83;;;0.50;99.90;;;;;;5008243;28;20479;-59
2022/12/20 03:53:11;;;;;;;66.28;27.15;;;0.50;99.90;;;;;;5008102;28;20034;-59
2022/12/20 03:55:37;;;;;;;53.58;26.98;;;0.50;99.90;;;;;;5008489;28;20491;-58
2022/12/20 03:58:02;;;;;;;60.38;28.60;;;0.50;99.90;;;;;;5008249;28;20252;-58
2022/12/20 04:00:28;;;;;;;55.33;26.35;;;0.50;99.90;;;;;;5008960;28;20401;-58
2022/12/20 04:02:54;;;;;;;53.38;26.27;;;0.50;99.90;;;;;;5008490;28;20409;-59
2022/12/20 04:05:20;;;;;;;59.90;28.67;;;0.50;99.90;;;;;;5006962;28;20513;-59
2022/12/20 04:07:46;;;;;;;58.80;29.98;;;0.50;99.90;;;;;;5008380;28;20022;-58
2022/12/20 04:10:12;;;;;;;55.88;24.55;;;0.60;99.90;;;;;;4992626;28;20485;-57
2022/12/20 04:12:37;;;;;;;54.92;28.65;;;0.60;99.90;;;;;;4994416;28;20026;-58
2022/12/20 04:15:03;;;;;;;56.53;28.58;;;0.60;99.90;;;;;;5008181;28;20089;-56
2022/12/20 04:17:29;;;;;;;58.53;27.60;;;0.60;99.90;;;;;;5007071;28;20030;-59
2022/12/20 04:19:55;;;;;;;59.90;25.40;;;0.60;99.90;;;;;;4996155;28;20033;-58
2022/12/20 04:22:20;;;;;;;53.92;25.98;;;0.70;99.90;;;;;;5007674;28;20053;-59
2022/12/20 04:24:46;;;;;;;61.47;27.13;;;0.70;99.90;;;;;;5008334;28;20022;-58
2022/12/20 04:27:12;;;;;;;56.25;27.13;;;0.70;99.90;;;;;;5007513;28;20031;-57
2022/12/20 04:29:38;;;;;;;58.60;27.27;;;0.70;99.90;;;;;;5008150;28;20049;-59
2022/12/20 04:32:03;;;;;;;61.40;27.33;;;0.70;99.90;;;;;;5008062;28;20409;-57
2022/12/20 04:34:29;;;;;;;61.00;29.45;;;0.70;99.90;;;;;;5007820;28;20032;-58
2022/12/20 04:36:55;;;;;;;56.35;26.42;;;0.70;99.90;;;;;;4993025;28;20104;-58
2022/12/20 04:39:20;;;;;;;52.80;24.98;;;0.70;99.90;;;;;;5007749;28;20073;-58
2022/12/20 04:41:46;;;;;;;53.88;25.77;;;0.70;99.90;;;;;;5007733;28;20559;-58
2022/12/20 04:44:11;;;;;;;60.95;27.70;;;0.70;99.90;;;;;;4999005;28;20060;-59
2022/12/20 04:46:38;;;;;;;55.92;29.33;;;0.70;99.90;;;;;;4998067;28;20046;-59
2022/12/20 04:49:04;;;;;;;60.90;28.17;;;0.70;99.90;;;;;;5008040;28;20068;-59
2022/12/20 04:51:29;;;;;;;60.45;28.15;;;0.70;99.90;;;;;;5007644;28;20032;-58
2022/12/20 04:53:55;;;;;;;58.33;27.55;;;0.70;99.90;;;;;;5008573;28;20081;-58
2022/12/20 04:56:27;;;;;;;64.93;28.90;;;0.80;99.90;;;;;;5010937;28;20110;-56
2022/12/20 04:58:54;;;;;;;63.65;30.02;;;0.70;99.90;;;;;;5010142;28;20058;-57
2022/12/20 05:01:20;;;;;;;59.05;29.65;;;0.70;99.90;;;;;;5011070;28;20042;-58
2022/12/20 05:03:47;;;;;;;70.50;31.48;;;0.70;99.90;;;;;;5002403;28;20103;-57
2022/12/20 05:06:13;;;;;;;71.28;30.63;;;0.70;99.90;;;;;;5011578;28;20313;-58
2022/12/20 05:08:39;;;;;;;68.75;31.52;;;0.70;99.90;;;;;;5012423;28;20064;-58
2022/12/20 05:11:06;;;;;;;61.58;28.92;;;0.70;99.90;;;;;;5012193;28;20061;-56
2022/12/20 05:13:31;;;;;;;61.17;28.02;;;0.70;99.90;;;;;;5012090;28;20556;-56
2022/12/20 05:15:57;;;;;;;67.53;30.10;;;0.70;99.90;;;;;;5011124;28;20034;-56
2022/12/20 05:18:25;;;;;;;66.95;29.10;;;0.70;99.90;;;;;;5011765;28;20026;-59
2022/12/20 05:26:16;;;;;;;64.20;28.67;;;0.70;99.90;;;;;;5010623;28;20461;-57
2022/12/20 05:26:27;;;;;;;65.55;30.63;;;0.70;99.90;;;;;;5010459;28;20036;-58
2022/12/20 05:28:53;;;;;;;61.55;28.52;;;0.70;99.90;;;;;;5011075;28;20033;-57
2022/12/20 05:31:19;;;;;;;65.68;29.58;;;0.80;99.90;;;;;;5010852;28;20398;-57
2022/12/20 05:33:45;;;;;;;63.78;28.95;;;0.80;99.90;;;;;;5013568;28;20018;-57
2022/12/20 05:36:10;;;;;;;72.53;32.05;;;0.80;99.90;;;;;;5011157;28;20037;-57
2022/12/20 05:38:36;;;;;;;62.30;31.48;;;0.80;99.90;;;;;;5010376;28;20034;-57
2022/12/20 05:41:03;;;;;;;61.10;29.38;;;0.80;99.90;;;;;;5009971;28;20037;-57
2022/12/20 05:43:29;;;;;;;68.30;31.15;;;0.80;99.90;;;;;;5010056;28;20026;-58
2022/12/20 05:45:55;;;;;;;72.95;30.25;;;0.80;99.90;;;;;;5010398;28;20409;-58
2022/12/20 05:48:20;;;;;;;71.82;30.90;;;0.80;99.90;;;;;;5011729;28;20918;-56
2022/12/20 05:50:47;;;;;;;66.53;29.83;;;0.80;99.90;;;;;;5010000;28;20485;-57
2022/12/20 05:53:14;;;;;;;62.97;28.83;;;0.80;99.90;;;;;;5011052;28;20022;-58
2022/12/20 05:55:51;;;;;;;61.78;29.10;;;0.80;99.90;;;;;;5010269;28;20049;-56
2022/12/20 05:58:17;;;;;;;59.45;27.70;;;0.90;99.90;;;;;;5010363;28;20030;-57
2022/12/20 06:00:43;;;;;;;59.85;28.70;;;0.90;99.90;;;;;;5010476;28;20757;-57
2022/12/20 06:03:10;;;;;;;68.68;27.70;;;0.90;99.90;;;;;;5009992;28;20453;-56
2022/12/20 06:05:37;;;;;;;66.40;29.95;;;0.90;99.90;;;;;;5009360;28;20052;-56
2022/12/20 06:08:06;;;;;;;60.60;27.65;;;0.90;99.90;;;;;;5009362;28;20026;-57
2022/12/20 06:10:33;;;;;;;65.07;27.92;;;0.90;99.90;;;;;;5009891;28;20034;-57
2022/12/20 06:13:00;;;;;;;73.28;30.00;;;0.90;99.90;;;;;;5009302;28;20053;-57
2022/12/20 06:15:25;;;;;;;67.82;29.75;;;0.90;99.90;;;;;;5010698;28;20018;-59
2022/12/20 06:17:51;;;;;;;72.32;33.83;;;0.90;99.90;;;;;;5006669;28;20033;-60
2022/12/20 06:20:17;;;;;;;68.97;30.58;;;0.90;99.90;;;;;;5006486;28;20045;-60
2022/12/20 06:22:42;;;;;;;70.85;32.50;;;0.90;99.90;;;;;;5010043;28;20491;-59
2022/12/20 06:25:08;;;;;;;69.57;33.03;;;0.90;99.90;;;;;;5008359;28;20662;-59
2022/12/20 06:27:35;;;;;;;74.00;33.38;;;0.90;99.90;;;;;;5010980;28;20028;-58
2022/12/20 06:30:03;;;;;;;70.55;30.52;;;0.90;99.90;;;;;;5009725;28;20030;-57
2022/12/20 06:32:29;;;;;;;73.72;32.05;;;0.90;99.90;;;;;;5009657;28;20033;-57
2022/12/20 06:34:54;;;;;;;69.18;30.65;;;0.90;99.90;;;;;;5009600;28;20050;-57
2022/12/20 06:37:20;;;;;;;63.65;30.35;;;0.90;99.90;;;;;;5009734;28;20049;-57
2022/12/20 06:39:45;;;;;;;71.38;32.63;;;1.00;99.90;;;;;;5010126;28;20032;-59
2022/12/20 06:42:11;;;;;;;72.00;32.45;;;0.90;99.90;;;;;;5010186;28;20517;-57
2022/12/20 06:44:37;;;;;;;69.95;29.77;;;1.00;99.90;;;;;;5009636;28;20410;-59
2022/12/20 06:47:02;;;;;;;66.05;30.30;;;1.00;99.90;;;;;;5008845;28;20085;-58
2022/12/20 06:49:28;;;;;;;63.88;30.65;;;1.00;99.90;;;;;;5008905;28;20088;-57
2022/12/20 06:51:54;;;;;;;64.63;30.88;;;1.00;99.90;;;;;;5011407;28;20036;-57
2022/12/20 06:54:20;;;;;;;67.63;29.88;;;1.00;99.90;;;;;;5010261;28;20041;-57
2022/12/20 06:56:45;;;;;;;60.92;29.80;;;1.00;99.90;;;;;;5008976;28;20121;-58
2022/12/20 06:59:11;;;;;;;63.40;29.48;;;1.00;99.90;;;;;;5009695;28;20030;-58
2022/12/20 07:01:37;;;;;;;57.03;28.60;;;1.00;99.90;;;;;;5005381;28;20570;-56
2022/12/20 07:04:02;;;;;;;61.38;29.40;;;1.00;99.90;;;;;;5010004;28;20036;-56
2022/12/20 07:06:28;;;;;;;65.43;28.88;;;1.00;99.90;;;;;;5011597;28;20026;-56
2022/12/20 07:08:54;;;;;;;72.55;30.70;;;1.00;99.90;;;;;;5009263;28;20041;-57
2022/12/20 07:11:20;;;;;;;62.80;28.77;;;1.00;99.90;;;;;;5010084;28;20025;-57
2022/12/20 07:13:46;;;;;;;58.83;28.38;;;1.00;99.90;;;;;;5008964;28;20049;-58
2022/12/20 07:16:12;;;;;;;59.33;27.85;;;1.00;99.90;;;;;;5010829;28;20057;-57
2022/12/20 07:18:37;;;;;;;52.38;25.98;;;1.00;99.90;;;;;;5008429;28;20024;-57
2022/12/20 07:21:05;;;;;;;56.10;27.95;;;1.00;99.90;;;;;;5008353;28;20038;-58
2022/12/20 07:23:31;;;;;;;60.33;27.67;;;1.00;99.90;;;;;;5008641;28;20026;-57
2022/12/20 07:25:59;;;;;;;57.17;27.33;;;1.00;99.90;;;;;;5008688;28;20596;-57
2022/12/20 07:28:26;;;;;;;57.15;27.88;;;1.00;99.90;;;;;;5006179;28;20037;-58
2022/12/20 07:30:52;;;;;;;58.08;27.25;;;1.00;99.90;;;;;;5008346;28;20635;-58
2022/12/20 07:33:18;;;;;;;60.72;28.40;;;1.00;99.90;;;;;;5006753;28;20034;-59
2022/12/20 07:35:45;;;;;;;56.67;27.58;;;0.90;99.90;;;;;;5005946;28;20571;-57
2022/12/20 07:38:11;;;;;;;57.45;26.63;;;1.00;99.90;;;;;;5008143;28;20045;-58
2022/12/20 07:40:41;;;;;;;58.35;26.98;;;0.90;99.90;;;;;;5007527;28;20045;-58
2022/12/20 07:43:08;;;;;;;53.35;26.00;;;1.00;99.90;;;;;;5008151;28;20022;-57
2022/12/20 07:45:33;;;;;;;52.40;25.75;;;0.90;99.90;;;;;;5008517;28;20142;-61
2022/12/20 07:47:59;;;;;;;62.15;28.80;;;1.00;99.90;;;;;;5007534;28;20112;-59
2022/12/20 07:50:26;;;;;;;52.70;25.67;;;1.00;99.90;;;;;;5006343;28;20129;-58
2022/12/20 07:52:53;;;;;;;57.97;26.67;;;1.00;99.90;;;;;;4992793;28;20073;-58
2022/12/20 07:55:20;;;;;;;59.13;26.35;;;1.10;99.90;;;;;;5010685;28;20046;-59
2022/12/20 07:57:53;;;;;;;52.05;26.13;;;1.10;99.90;;;;;;5007808;28;20021;-60
2022/12/20 08:00:19;;;;;;;57.17;25.20;;;1.20;99.90;;;;;;5011924;28;20048;-59
2022/12/20 08:02:54;;;;;;;58.15;26.67;;;1.20;99.90;;;;;;5007370;28;20034;-59
2022/12/20 08:05:21;;;;;;;47.63;23.25;;;1.20;99.90;;;;;;5007941;28;20474;-58
2022/12/20 08:07:47;;;;;;;57.05;26.35;;;1.20;99.90;;;;;;4995129;28;20430;-58
2022/12/20 08:10:15;;;;;;;47.85;25.13;;;1.20;99.90;;;;;;5007461;28;20026;-58
2022/12/20 08:12:44;;;;;;;50.08;26.25;;;1.10;99.90;;;;;;4994873;28;20037;-59
2022/12/20 08:15:10;;;;;;;54.97;27.38;;;1.10;99.90;;;;;;5006302;28;20378;-59
2022/12/20 08:17:36;;;;;;;60.47;29.33;;;1.10;99.90;;;;;;5008492;28;20030;-58
2022/12/20 08:20:04;;;;;;;59.72;26.13;;;1.10;99.90;;;;;;5005048;28;20072;-58
2022/12/20 08:22:30;;;;;;;53.97;27.45;;;1.20;99.90;;;;;;5007497;28;20065;-59
2022/12/20 08:24:56;;;;;;;50.88;25.27;;;1.20;99.90;;;;;;5007775;28;20351;-59
2022/12/20 08:27:21;;;;;;;53.40;25.80;;;1.20;99.90;;;;;;5008386;28;20466;-58
2022/12/20 08:29:48;;;;;;;52.97;25.60;;;1.20;99.90;;;;;;5006996;28;20045;-58
2022/12/20 08:32:14;;;;;;;56.85;27.17;;;1.20;99.90;;;;;;5007320;28;20078;-59
2022/12/20 08:34:40;;;;;;;54.08;26.85;;;1.30;99.90;;;;;;5016668;28;20038;-57
2022/12/20 08:37:06;;;;;;;51.65;26.80;;;1.30;99.90;;;;;;5008722;28;20026;-57
2022/12/20 08:39:32;;;;;;;48.42;24.95;;;1.30;99.90;;;;;;5008781;28;20044;-59
2022/12/20 08:41:57;;;;;;;48.95;24.98;;;1.40;99.90;;;;;;5006415;28;20038;-58
2022/12/20 08:44:24;;;;;;;52.80;25.73;;;1.40;99.90;;;;;;4996144;28;20068;-57
2022/12/20 08:46:50;;;;;;;52.45;27.98;;;1.50;99.90;;;;;;5006700;28;20100;-58
2022/12/20 08:49:15;;;;;;;43.78;24.52;;;1.50;99.90;;;;;;5009011;28;20445;-59
2022/12/20 08:51:41;;;;;;;46.25;24.80;;;1.60;99.90;;;;;;5008438;28;20950;-59
2022/12/20 08:54:07;;;;;;;52.58;24.80;;;1.70;99.90;;;;;;5006561;28;20040;-58
2022/12/20 08:56:33;;;;;;;48.40;22.90;;;1.80;99.90;;;;;;5008113;28;20029;-58
2022/12/20 08:58:58;;;;;;;45.67;23.95;;;1.80;99.90;;;;;;5007057;28;20116;-59
2022/12/20 09:01:25;;;;;;;47.95;23.67;;;1.90;99.90;;;;;;5006917;28;20651;-58
2022/12/20 09:03:51;;;;;;;43.67;21.92;;;1.80;99.90;;;;;;5008305;28;20443;-58
2022/12/20 09:06:21;;;;;;;44.95;23.67;;;1.90;99.90;;;;;;5008281;28;20117;-57
2022/12/20 09:08:47;;;;;;;44.50;23.55;;;1.90;99.90;;;;;;5007672;28;20030;-58
2022/12/20 09:11:18;;;;;;;49.58;23.48;;;1.90;99.90;;;;;;5007185;28;20096;-57
2022/12/20 09:13:46;;;;;;;53.88;26.30;;;1.90;99.90;;;;;;5007015;28;20030;-58
2022/12/20 09:16:17;;;;;;;46.70;23.80;;;2.00;99.90;;;;;;5006820;28;20025;-57
2022/12/20 09:18:43;;;;;;;46.83;22.98;;;2.00;99.90;;;;;;5006338;28;20025;-58
2022/12/20 09:21:10;;;;;;;50.63;22.90;;;2.00;99.90;;;;;;5006735;28;20034;-58
2022/12/20 09:23:37;;;;;;;46.65;24.35;;;2.00;99.90;;;;;;4999309;28;20502;-59
2022/12/20 09:26:06;;;;;;;41.60;22.95;;;2.10;99.90;;;;;;5008982;28;20037;-57
2022/12/20 09:28:33;;;;;;;46.53;24.05;;;2.10;99.90;;;;;;5007381;28;20028;-58
2022/12/20 09:30:59;;;;;;;43.75;22.95;;;2.10;99.90;;;;;;5006812;28;20049;-59
2022/12/20 09:33:27;;;;;;;45.97;23.35;;;2.10;99.90;;;;;;5008222;28;20513;-59
2022/12/20 09:35:53;;;;;;;41.60;23.25;;;2.00;99.90;;;;;;4992021;28;20038;-59
2022/12/20 09:38:19;;;;;;;38.70;21.70;;;2.00;99.90;;;;;;5006980;28;20561;-58
2022/12/20 09:40:48;;;;;;;40.97;22.98;;;2.10;99.90;;;;;;4990179;28;20060;-59
2022/12/20 09:43:15;;;;;;;43.00;22.55;;;2.00;99.90;;;;;;4996265;28;20018;-58
2022/12/20 09:45:42;;;;;;;40.00;21.95;;;2.10;99.90;;;;;;5010267;28;20060;-57
2022/12/20 09:48:22;;;;;;;42.42;21.25;;;2.10;99.90;;;;;;5010344;28;20371;-57
2022/12/20 09:51:17;;;;;;;43.53;22.25;;;2.10;99.90;;;;;;5008974;28;20029;-57
2022/12/20 09:54:06;;;;;;;44.42;22.38;;;2.10;99.90;;;;;;4983803;28;20675;-59
2022/12/20 09:56:36;;;;;;;42.28;22.33;;;2.10;99.90;;;;;;5009740;28;20060;-58
2022/12/20 09:59:02;;;;;;;48.13;23.27;;;2.10;99.90;;;;;;5010772;28;20036;-57
2022/12/20 10:01:31;;;;;;;41.47;21.27;;;2.10;99.90;;;;;;5008254;28;20407;-58
2022/12/20 10:04:01;;;;;;;42.70;22.65;;;2.10;99.90;;;;;;5010908;28;20405;-56
2022/12/20 10:06:55;;;;;;;40.65;22.45;;;2.10;99.90;;;;;;5010394;28;20029;-57
2022/12/20 10:09:45;;;;;;;41.25;21.73;;;2.20;99.90;;;;;;5010098;28;20076;-57
2022/12/20 10:12:36;;;;;;;39.85;21.83;;;2.20;99.90;;;;;;5009639;28;20037;-58
2022/12/20 10:15:13;;;;;;;35.50;20.13;;;2.20;99.90;;;;;;5009899;28;20083;-58
2022/12/20 10:17:57;;;;;;;41.05;22.35;;;2.20;99.90;;;;;;5011563;28;20064;-58
2022/12/20 10:20:43;;;;;;;46.72;22.52;;;2.20;99.90;;;;;;5010795;28;20505;-57
2022/12/20 10:23:22;;;;;;;41.20;21.58;;;2.30;99.90;;;;;;5010506;28;20026;-57
2022/12/20 10:25:50;;;;;;;40.78;21.85;;;2.40;99.90;;;;;;5009959;28;20018;-58
2022/12/20 10:28:19;;;;;;;37.00;22.58;;;2.40;99.90;;;;;;5009971;28;20041;-58
2022/12/20 10:30:44;;;;;;;34.05;19.60;;;2.40;99.90;;;;;;5010222;28;20026;-58
2022/12/20 10:33:19;;;;;;;41.75;22.42;;;2.40;99.90;;;;;;5010250;28;20038;-58
2022/12/20 10:35:46;;;;;;;37.47;19.45;;;2.40;99.90;;;;;;5009519;28;20434;-57
2022/12/20 10:38:16;;;;;;;38.58;21.60;;;2.40;99.90;;;;;;5010003;28;20525;-57
2022/12/20 10:41:02;;;;;;;39.20;21.92;;;2.40;99.90;;;;;;5008261;28;20088;-57
2022/12/20 10:43:41;;;;;;;37.88;19.92;;;2.40;99.90;;;;;;5009450;28;20117;-57
2022/12/20 10:46:09;;;;;;;37.13;20.30;;;2.40;99.90;;;;;;5009883;28;20025;-58
2022/12/20 10:48:36;;;;;;;38.67;20.42;;;2.40;99.90;;;;;;5009995;28;20045;-57
2022/12/20 10:51:13;;;;;;;37.25;20.20;;;2.50;99.90;;;;;;5009443;28;20030;-56
2022/12/20 10:53:56;;;;;;;38.95;20.17;;;2.50;99.90;;;;;;5008185;28;20597;-58
2022/12/20 10:56:22;;;;;;;38.25;19.38;;;2.50;99.90;;;;;;5008652;28;20124;-58
2022/12/20 10:59:20;;;;;;;36.90;20.38;;;2.50;99.90;;;;;;5008993;28;20130;-58
2022/12/20 11:01:47;;;;;;;36.95;19.15;;;2.50;99.90;;;;;;5008683;28;20030;-57
2022/12/20 11:04:27;;;;;;;37.00;20.58;;;2.50;99.90;;;;;;5008442;28;20018;-58
2022/12/20 11:06:53;;;;;;;38.33;21.10;;;2.50;99.90;;;;;;5006530;28;20025;-58
2022/12/20 11:09:21;;;;;;;39.85;19.98;;;2.60;99.90;;;;;;5007331;28;20379;-58
2022/12/20 11:12:12;;;;;;;39.53;20.88;;;2.60;99.90;;;;;;5009073;28;20034;-58
2022/12/20 11:14:40;;;;;;;39.25;21.25;;;2.60;99.90;;;;;;5006247;28;20085;-56
2022/12/20 11:17:37;;;;;;;38.55;21.17;;;2.60;99.90;;;;;;5008325;28;20030;-58
2022/12/20 11:20:21;;;;;;;41.30;21.38;;;2.60;99.90;;;;;;5008200;28;20057;-57
2022/12/20 11:22:55;;;;;;;35.63;19.48;;;2.60;99.90;;;;;;5009532;28;20022;-58
2022/12/20 11:25:33;;;;;;;41.08;19.90;;;2.50;99.90;;;;;;5006680;28;20030;-58
2022/12/20 11:28:32;;;;;;;34.10;20.55;;;2.50;99.90;;;;;;5007980;28;20034;-60
2022/12/20 11:31:10;;;;;;;34.63;20.00;;;2.50;99.90;;;;;;5006803;28;20036;-59
2022/12/20 11:33:49;;;;;;;40.85;20.23;;;2.60;99.90;;;;;;5009378;28;20044;-58
2022/12/20 11:36:30;;;;;;;40.30;20.75;;;2.60;99.90;;;;;;5002409;28;20401;-58
2022/12/20 11:39:31;;;;;;;35.20;17.88;;;2.60;99.90;;;;;;4995458;28;20080;-58
2022/12/20 11:42:08;;;;;;;32.93;18.73;;;2.60;99.90;;;;;;4984296;28;20046;-57
2022/12/20 11:44:51;;;;;;;35.63;20.45;;;2.60;99.90;;;;;;5007653;28;20088;-59
2022/12/20 11:47:31;;;;;;;36.13;21.05;;;2.60;99.90;;;;;;5007982;28;20066;-57
2022/12/20 11:50:15;;;;;;;35.53;19.85;;;2.70;99.90;;;;;;5007497;28;20121;-57
2022/12/20 11:52:50;;;;;;;32.67;18.48;;;2.70;99.90;;;;;;5007225;28;20037;-57
2022/12/20 11:55:40;;;;;;;36.97;19.75;;;2.70;99.90;;;;;;5005865;28;20034;-57
2022/12/20 11:58:22;;;;;;;36.28;18.90;;;2.80;99.90;;;;;;5007623;28;20022;-57
2022/12/20 12:00:59;;;;;;;36.63;19.20;;;2.80;99.90;;;;;;5009145;28;20454;-57
2022/12/20 12:03:33;;;;;;;36.00;19.33;;;2.70;99.90;;;;;;5007034;28;20034;-56
2022/12/20 12:06:18;;;;;;;36.08;21.40;;;2.70;99.90;;;;;;5008198;28;20401;-57
2022/12/20 12:09:17;;;;;;;39.08;20.58;;;2.70;99.90;;;;;;5007957;28;20053;-57
2022/12/20 12:11:49;;;;;;;37.30;18.83;;;2.70;99.90;;;;;;4995124;28;20041;-57
2022/12/20 12:14:27;;;;;;;29.45;17.58;;;2.70;99.90;;;;;;5008210;28;20054;-58
2022/12/20 12:16:57;;;;;;;38.22;19.73;;;2.70;99.90;;;;;;5007256;28;20064;-57
2022/12/20 12:19:26;;;;;;;33.22;19.30;;;2.60;99.90;;;;;;5006557;28;20026;-58
2022/12/20 12:22:00;;;;;;;33.58;18.95;;;2.70;99.90;;;;;;5008094;28;20061;-57
2022/12/20 12:24:38;;;;;;;37.13;20.10;;;2.70;99.90;;;;;;5007597;28;20482;-58
2022/12/20 12:27:04;;;;;;;35.35;19.35;;;2.60;99.90;;;;;;5007891;28;20046;-57
2022/12/20 12:29:33;;;;;;;34.28;18.48;;;2.70;99.90;;;;;;5008411;28;20522;-58
2022/12/20 12:32:13;;;;;;;38.25;19.58;;;2.70;99.90;;;;;;5006758;28;20045;-58
2022/12/20 12:35:13;;;;;;;35.78;19.13;;;2.70;99.90;;;;;;5006946;28;20069;-62
2022/12/20 12:38:20;;;;;;;33.83;18.58;;;2.70;99.90;;;;;;5003940;28;20038;-58
2022/12/20 12:41:03;;;;;;;40.63;21.30;;;2.70;99.90;;;;;;5007214;28;20061;-57
2022/12/20 12:43:52;;;;;;;40.67;21.13;;;2.80;99.90;;;;;;5007480;28;20034;-57
2022/12/20 12:46:29;;;;;;;41.58;19.33;;;2.80;99.90;;;;;;5005747;28;20420;-57
2022/12/20 12:49:13;;;;;;;36.80;19.92;;;2.80;99.90;;;;;;5006725;28;20038;-57
2022/12/20 12:51:48;;;;;;;34.88;20.23;;;2.80;99.90;;;;;;5007179;28;20038;-57
2022/12/20 12:54:18;;;;;;;41.83;22.05;;;2.80;99.90;;;;;;5007903;28;20612;-58
2022/12/20 12:56:46;;;;;;;35.03;19.90;;;2.80;99.90;;;;;;5007138;28;20076;-58